Time;durP1;ratioP1;P1;durP2;ratioP2;P2;SDS_P1;SDS_P2;PMS_P1;PMS_P2;Temp;Humidity;BMP_temperature;BMP_pressure;BME280_temperature;BME280_humidity;BME280_pressure;Samples;Min_cycle;Max_cycle;Signal;HPM_P1;HPM_P2
2022/04/25 00:00:48;;;;;;;3.45;2.10;;;20.40;41.80;19.60;100488.00;;;;5039254;28;20048;-70
2022/04/25 00:03:34;;;;;;;3.60;2.10;;;20.30;41.70;19.60;100497.00;;;;5033563;28;20372;-70
2022/04/25 00:06:20;;;;;;;3.03;2.05;;;20.40;41.90;19.60;100493.00;;;;5037273;28;20049;-70
2022/04/25 00:09:06;;;;;;;4.28;2.50;;;20.40;41.90;19.60;100505.00;;;;5024263;28;20554;-70
2022/04/25 00:11:52;;;;;;;3.25;1.88;;;20.40;41.90;19.60;100505.00;;;;5033846;28;20051;-70
2022/04/25 00:14:38;;;;;;;5.30;2.10;;;20.30;41.80;19.50;100503.00;;;;5035372;28;20106;-70
2022/04/25 00:17:24;;;;;;;3.25;2.08;;;20.40;41.90;19.50;100506.00;;;;5038247;28;20049;-70
2022/04/25 00:20:11;;;;;;;3.47;2.28;;;20.30;41.90;19.50;100503.00;;;;5023818;28;20402;-70
2022/04/25 00:23:00;;;;;;;4.03;2.33;;;20.40;42.00;19.60;100506.00;;;;5020974;28;20083;-70
2022/04/25 00:25:46;;;;;;;3.20;2.17;;;20.40;42.00;19.50;100499.00;;;;5034702;28;20053;-70
2022/04/25 00:28:32;;;;;;;4.00;2.25;;;20.30;41.90;19.50;100504.00;;;;5034273;28;20064;-70
2022/04/25 00:31:18;;;;;;;3.33;2.00;;;20.40;42.00;19.50;100501.00;;;;5034799;28;20558;-70
2022/04/25 00:34:04;;;;;;;4.30;2.28;;;20.40;42.00;19.50;100499.00;;;;5024327;28;20049;-70
2022/04/25 00:36:50;;;;;;;2.25;1.73;;;20.30;42.00;19.50;100496.00;;;;5036988;28;20044;-70
2022/04/25 00:39:36;;;;;;;3.10;2.20;;;20.40;42.10;19.50;100489.00;;;;5037588;28;20123;-70
2022/04/25 00:42:22;;;;;;;2.75;2.00;;;20.30;42.10;19.50;100490.00;;;;5038611;28;20045;-70
2022/04/25 00:45:12;;;;;;;3.53;2.28;;;20.30;42.10;19.50;100486.00;;;;5007071;28;20849;-70
2022/04/25 00:47:58;;;;;;;4.88;2.45;;;20.30;42.20;19.50;100482.00;;;;5025153;28;20109;-70
2022/04/25 00:50:45;;;;;;;4.55;2.50;;;20.30;42.10;19.50;100488.00;;;;5034183;28;20485;-70
2022/04/25 00:53:31;;;;;;;3.00;2.38;;;20.30;42.10;19.50;100488.00;;;;5032034;28;20037;-70
2022/04/25 00:56:17;;;;;;;3.25;2.45;;;20.30;42.20;19.50;100481.00;;;;5035753;28;20429;-70
2022/04/25 00:59:03;;;;;;;4.10;2.20;;;20.30;42.10;19.50;100481.00;;;;5036949;28;20053;-70
2022/04/25 01:01:51;;;;;;;4.25;2.38;;;20.30;42.20;19.50;100474.00;;;;5019528;28;20052;-70
2022/04/25 01:04:55;;;;;;;3.05;2.40;;;20.30;42.20;19.50;100475.00;;;;5034461;28;20525;-70
2022/04/25 01:07:41;;;;;;;4.15;2.10;;;20.30;42.20;19.50;100477.00;;;;5023844;28;20051;-70
2022/04/25 01:10:27;;;;;;;3.55;2.65;;;20.30;42.20;19.50;100471.00;;;;5033659;28;20087;-70
2022/04/25 01:13:14;;;;;;;5.60;2.50;;;20.40;42.30;19.50;100474.00;;;;5020168;28;20040;-70
2022/04/25 01:16:00;;;;;;;4.13;2.38;;;20.30;42.30;19.50;100476.00;;;;5014483;28;20060;-70
2022/04/25 01:18:46;;;;;;;4.07;2.20;;;20.30;42.30;19.50;100470.00;;;;5025217;28;20092;-70
2022/04/25 01:21:38;;;;;;;3.95;2.25;;;20.30;42.30;19.50;100483.00;;;;5037342;28;20037;-70
2022/04/25 01:27:29;;;;;;;2.95;2.47;;;20.30;42.30;19.50;100483.00;;;;5026658;28;20052;-70
2022/04/25 01:30:15;;;;;;;3.35;2.38;;;20.30;42.30;19.50;100479.00;;;;5032677;28;20029;-70
2022/04/25 01:33:01;;;;;;;4.65;2.50;;;20.30;42.40;19.40;100482.00;;;;5019262;28;20037;-71
2022/04/25 01:35:47;;;;;;;3.53;2.58;;;20.30;42.40;19.50;100488.00;;;;5035081;28;20044;-70
2022/04/25 01:38:34;;;;;;;3.70;2.40;;;20.30;42.40;19.50;100485.00;;;;5033301;28;20040;-71
2022/04/25 01:41:20;;;;;;;3.55;2.70;;;20.30;42.40;19.40;100484.00;;;;5037513;28;20049;-70
2022/04/25 01:44:06;;;;;;;4.03;2.35;;;20.30;42.40;19.40;100492.00;;;;5008339;28;20123;-70
2022/04/25 01:46:52;;;;;;;6.57;2.72;;;20.30;42.40;19.40;100492.00;;;;5035084;28;20061;-70
2022/04/25 01:49:38;;;;;;;3.35;2.60;;;20.20;42.40;19.40;100490.00;;;;5039545;28;20034;-70
2022/04/25 01:52:34;;;;;;;3.92;2.70;;;20.30;42.50;19.40;100494.00;;;;5021403;28;20414;-70
2022/04/25 01:55:20;;;;;;;3.28;2.20;;;20.20;42.50;19.40;100497.00;;;;5023857;28;20179;-70
2022/04/25 01:58:06;;;;;;;5.57;3.00;;;20.20;42.50;19.40;100497.00;;;;5022496;28;20198;-70
2022/04/25 02:00:53;;;;;;;3.60;2.47;;;20.20;42.50;19.40;100498.00;;;;5039022;28;20056;-71
2022/04/25 02:03:41;;;;;;;3.92;2.10;;;20.20;42.50;19.40;100498.00;;;;5034326;28;20052;-70
2022/04/25 02:06:29;;;;;;;4.30;2.58;;;20.20;42.50;19.40;100486.00;;;;5023590;28;20049;-70
2022/04/25 02:09:15;;;;;;;3.78;2.25;;;20.30;42.50;19.40;100487.00;;;;5034928;28;20123;-70
2022/04/25 02:12:01;;;;;;;3.53;2.38;;;20.20;42.50;19.40;100482.00;;;;5036881;28;20033;-70
2022/04/25 02:14:47;;;;;;;4.47;2.42;;;20.20;42.50;19.40;100487.00;;;;5033574;28;20041;-70
2022/04/25 02:17:33;;;;;;;3.45;2.58;;;20.20;42.50;19.40;100491.00;;;;5019707;28;20045;-70
2022/04/25 02:20:19;;;;;;;3.20;2.30;;;20.20;42.60;19.40;100492.00;;;;5034060;28;20049;-70
2022/04/25 02:23:06;;;;;;;4.03;2.50;;;20.20;42.60;19.40;100489.00;;;;5016255;28;20037;-70
2022/04/25 02:25:52;;;;;;;4.75;2.78;;;20.20;42.60;19.40;100489.00;;;;5039454;28;20049;-70
2022/04/25 02:28:38;;;;;;;5.57;2.83;;;20.20;42.60;19.40;100485.00;;;;5020999;28;20045;-70
2022/04/25 02:31:24;;;;;;;6.00;3.17;;;20.30;42.70;19.40;100479.00;;;;5032617;28;20052;-70
2022/04/25 02:34:10;;;;;;;4.13;2.72;;;20.20;42.60;19.40;100491.00;;;;5042470;28;20033;-70
2022/04/25 02:36:57;;;;;;;4.10;3.10;;;20.20;42.70;19.40;100481.00;;;;5040484;28;20455;-70
2022/04/25 02:39:43;;;;;;;4.38;2.97;;;20.20;42.70;19.40;100483.00;;;;5015856;28;20053;-70
2022/04/25 02:42:29;;;;;;;3.85;2.50;;;20.20;42.70;19.40;100480.00;;;;5036674;28;20045;-70
2022/04/25 02:45:15;;;;;;;5.03;3.00;;;20.20;42.60;19.40;100479.00;;;;5035734;28;20049;-70
2022/04/25 02:48:01;;;;;;;5.60;3.08;;;20.20;42.70;19.40;100477.00;;;;5036025;28;20038;-70
2022/04/25 02:50:48;;;;;;;5.60;2.72;;;20.20;42.70;19.40;100473.00;;;;5033214;28;20075;-70
2022/04/25 02:53:34;;;;;;;5.72;2.83;;;20.20;42.80;19.40;100479.00;;;;5024002;28;20049;-70
2022/04/25 02:56:20;;;;;;;4.35;2.63;;;20.20;42.70;19.40;100480.00;;;;5033363;28;20658;-70
2022/04/25 02:59:07;;;;;;;6.53;3.03;;;20.10;42.60;19.40;100478.00;;;;5036655;28;20053;-70
2022/04/25 03:01:53;;;;;;;3.90;2.90;;;20.20;42.70;19.40;100472.00;;;;5031368;28;20449;-70
2022/04/25 03:04:39;;;;;;;4.05;2.78;;;20.20;42.70;19.40;100489.00;;;;5020471;28;20048;-70
2022/04/25 03:07:25;;;;;;;5.20;3.05;;;20.20;42.80;19.30;100486.00;;;;5031413;28;20052;-70
2022/04/25 03:10:11;;;;;;;4.32;2.97;;;20.20;42.80;19.40;100483.00;;;;5029974;28;20078;-71
2022/04/25 03:12:57;;;;;;;4.45;2.75;;;20.20;42.80;19.30;100485.00;;;;5036220;28;20041;-70
2022/04/25 03:15:44;;;;;;;5.28;3.40;;;20.10;42.70;19.30;100483.00;;;;5030532;28;20061;-70
2022/04/25 03:18:31;;;;;;;3.60;2.58;;;20.10;42.80;19.30;100476.00;;;;5018237;28;20050;-70
2022/04/25 03:21:17;;;;;;;4.75;3.05;;;20.10;42.70;19.30;100485.00;;;;5026637;28;20052;-70
2022/04/25 03:24:03;;;;;;;6.07;2.83;;;20.10;42.80;19.30;100476.00;;;;5023690;28;20059;-70
2022/04/25 03:26:49;;;;;;;4.28;2.72;;;20.10;42.80;19.30;100479.00;;;;5034765;28;20049;-70
2022/04/25 03:29:36;;;;;;;4.78;3.03;;;20.10;42.80;19.30;100482.00;;;;5021029;28;20134;-70
2022/04/25 03:32:22;;;;;;;3.55;2.80;;;20.10;42.80;19.30;100485.00;;;;5033742;28;20049;-70
2022/04/25 03:35:08;;;;;;;5.32;3.05;;;20.10;42.80;19.30;100486.00;;;;5034250;28;20095;-70
2022/04/25 03:37:54;;;;;;;3.97;3.00;;;20.10;42.80;19.30;100484.00;;;;5039352;28;20560;-70
2022/04/25 03:40:41;;;;;;;4.78;3.03;;;20.10;42.80;19.30;100487.00;;;;5033777;28;20066;-70
2022/04/25 03:43:27;;;;;;;6.25;3.45;;;20.10;43.00;19.30;100496.00;;;;5013227;28;20072;-70
2022/04/25 03:46:14;;;;;;;4.50;3.03;;;20.10;43.00;19.30;100491.00;;;;5016868;28;20503;-70
2022/04/25 03:49:00;;;;;;;5.38;3.28;;;20.10;43.00;19.30;100489.00;;;;5035959;28;20041;-70
2022/04/25 03:51:46;;;;;;;6.03;3.15;;;20.10;43.00;19.30;100496.00;;;;5029709;28;20045;-70
2022/04/25 03:57:37;;;;;;;6.38;3.55;;;20.10;43.00;19.30;100492.00;;;;5029601;28;20045;-70
2022/04/25 04:00:23;;;;;;;4.93;3.08;;;20.10;43.10;19.30;100510.00;;;;5022146;28;20041;-70
2022/04/25 04:03:11;;;;;;;5.03;3.45;;;20.10;43.80;19.30;100525.00;;;;5031719;28;20048;-70
2022/04/25 04:05:57;;;;;;;5.35;3.13;;;20.00;43.10;19.20;100531.00;;;;5005892;28;20045;-70
2022/04/25 04:08:43;;;;;;;4.13;2.78;;;20.10;43.10;19.20;100534.00;;;;5032361;28;20487;-70
2022/04/25 04:11:46;;;;;;;4.88;3.33;;;20.00;43.20;19.20;100526.00;;;;5015982;28;20041;-70
2022/04/25 04:14:32;;;;;;;5.68;3.20;;;20.00;43.20;19.20;100524.00;;;;5033593;28;20084;-70
2022/04/25 04:17:18;;;;;;;3.58;2.80;;;20.00;43.10;19.20;100529.00;;;;5032282;28;20486;-70
2022/04/25 04:20:05;;;;;;;4.20;2.60;;;20.00;43.20;19.20;100532.00;;;;5035295;28;20052;-70
2022/04/25 04:22:51;;;;;;;4.82;3.25;;;20.00;43.20;19.20;100527.00;;;;5031807;28;20051;-70
2022/04/25 04:25:37;;;;;;;6.05;2.90;;;20.00;43.20;19.20;100546.00;;;;5030511;28;20049;-70
2022/04/25 04:28:23;;;;;;;6.40;3.42;;;20.00;43.20;19.20;100544.00;;;;5022197;28;20041;-70
2022/04/25 04:31:09;;;;;;;3.72;2.72;;;20.00;43.20;19.20;100543.00;;;;5029323;28;20037;-70
2022/04/25 04:33:55;;;;;;;5.40;3.08;;;20.00;43.20;19.20;100556.00;;;;5030557;28;20049;-70
2022/04/25 04:36:41;;;;;;;4.43;3.33;;;20.00;43.30;19.20;100552.00;;;;5028756;28;20876;-70
2022/04/25 04:39:28;;;;;;;5.47;2.90;;;20.00;43.30;19.20;100562.00;;;;5032789;28;20045;-70
2022/04/25 04:42:14;;;;;;;5.07;3.08;;;20.00;43.40;19.20;100553.00;;;;5036119;28;20049;-70
2022/04/25 04:45:00;;;;;;;4.03;2.65;;;20.00;43.40;19.20;100567.00;;;;5032982;28;20053;-70
2022/04/25 04:47:46;;;;;;;6.63;3.25;;;20.10;43.40;19.20;100576.00;;;;5029780;28;20442;-70
2022/04/25 04:50:32;;;;;;;3.35;2.58;;;20.00;43.50;19.20;100579.00;;;;5018313;28;20042;-70
2022/04/25 04:53:18;;;;;;;3.83;2.65;;;20.00;43.50;19.20;100578.00;;;;5039183;28;20142;-70
2022/04/25 04:56:05;;;;;;;4.45;3.03;;;20.00;43.40;19.20;100571.00;;;;5033254;28;20057;-70
2022/04/25 04:58:51;;;;;;;4.47;3.00;;;20.00;43.50;19.20;100578.00;;;;5035840;28;20047;-70
2022/04/25 05:01:38;;;;;;;3.58;3.03;;;20.00;43.50;19.20;100582.00;;;;5035573;28;20402;-70
2022/04/25 05:04:24;;;;;;;4.68;2.90;;;20.00;43.50;19.20;100588.00;;;;5017834;28;20514;-70
2022/04/25 05:07:10;;;;;;;3.88;2.70;;;20.00;43.50;19.20;100586.00;;;;5037912;28;20049;-71
2022/04/25 05:09:56;;;;;;;3.65;2.83;;;20.00;43.50;19.20;100589.00;;;;5033159;28;20041;-70
2022/04/25 05:12:50;;;;;;;6.00;2.83;;;19.90;43.60;19.20;100590.00;;;;5039858;28;20175;-71
2022/04/25 05:15:36;;;;;;;3.70;2.30;;;20.00;43.70;19.20;100583.00;;;;5039466;28;20445;-71
2022/04/25 05:18:22;;;;;;;4.72;2.80;;;19.90;43.50;19.20;100596.00;;;;5027478;28;20053;-70
2022/04/25 05:21:09;;;;;;;5.35;2.60;;;19.90;43.60;19.20;100597.00;;;;5043284;28;20502;-70
2022/04/25 05:23:55;;;;;;;5.93;2.70;;;19.90;43.60;19.10;100593.00;;;;5036229;28;20056;-70
2022/04/25 05:26:41;;;;;;;3.25;2.70;;;19.90;43.60;19.20;100596.00;;;;5039736;28;20666;-70
2022/04/25 05:29:27;;;;;;;4.55;2.88;;;19.90;43.60;19.20;100600.00;;;;5032638;28;20611;-70
2022/04/25 05:32:13;;;;;;;5.22;2.80;;;19.90;43.60;19.10;100593.00;;;;5020238;28;20034;-70
2022/04/25 05:34:59;;;;;;;3.95;2.67;;;19.90;43.50;19.10;100605.00;;;;5028238;28;20041;-70
2022/04/25 05:37:45;;;;;;;3.83;2.80;;;19.90;43.60;19.10;100606.00;;;;5038616;28;20655;-70
2022/04/25 05:40:31;;;;;;;4.40;2.65;;;19.90;43.70;19.10;100607.00;;;;5019459;28;20049;-71
2022/04/25 05:43:18;;;;;;;4.78;2.45;;;19.90;43.70;19.10;100612.00;;;;5046466;28;20037;-70
2022/04/25 05:46:04;;;;;;;5.03;2.97;;;19.90;43.70;19.10;100619.00;;;;5022639;28;20049;-70
2022/04/25 05:52:03;;;;;;;3.45;2.80;;;19.90;43.70;19.10;100624.00;;;;5035828;28;20065;-70
2022/04/25 05:54:49;;;;;;;4.40;2.80;;;19.90;43.70;19.10;100629.00;;;;5010528;28;20056;-71
2022/04/25 05:57:35;;;;;;;3.78;2.40;;;19.90;43.70;19.10;100626.00;;;;5043213;28;20033;-70
2022/04/25 06:00:21;;;;;;;3.40;2.45;;;19.90;43.70;19.10;100628.00;;;;5035591;28;20383;-71
2022/04/25 06:03:08;;;;;;;3.95;2.63;;;19.90;43.70;19.10;100629.00;;;;5038199;28;20049;-70
2022/04/25 06:05:54;;;;;;;3.77;2.83;;;19.90;43.80;19.10;100632.00;;;;5027741;28;20067;-70
2022/04/25 06:08:40;;;;;;;5.25;2.90;;;20.00;43.80;19.10;100631.00;;;;5036996;28;20040;-70
2022/04/25 06:11:26;;;;;;;5.38;2.75;;;19.90;43.80;19.10;100633.00;;;;5044423;28;20037;-70
2022/04/25 06:14:13;;;;;;;4.53;2.88;;;19.90;43.70;19.10;100631.00;;;;5030969;28;20048;-70
2022/04/25 06:16:59;;;;;;;3.90;2.63;;;19.90;43.80;19.10;100632.00;;;;5041059;28;20047;-70
2022/04/25 06:19:45;;;;;;;6.93;3.38;;;19.90;43.90;19.10;100637.00;;;;5035838;28;20417;-70
2022/04/25 06:22:31;;;;;;;3.42;2.58;;;19.90;43.90;19.10;100638.00;;;;5035642;28;20045;-70
2022/04/25 06:25:17;;;;;;;3.88;2.50;;;19.90;43.90;19.10;100638.00;;;;5038280;28;20039;-70
2022/04/25 06:28:04;;;;;;;3.33;2.60;;;19.90;44.00;19.10;100639.00;;;;5025886;28;20033;-70
2022/04/25 06:30:51;;;;;;;4.80;2.85;;;19.90;43.90;19.10;100633.00;;;;5011557;28;20036;-70
2022/04/25 06:33:38;;;;;;;4.45;2.72;;;19.90;43.90;19.10;100638.00;;;;5029205;28;20091;-70
2022/04/25 06:36:25;;;;;;;4.22;2.45;;;19.90;43.90;19.10;100642.00;;;;5035291;28;20109;-70
2022/04/25 06:39:11;;;;;;;3.88;2.78;;;19.90;43.90;19.10;100642.00;;;;5034223;28;20112;-70
2022/04/25 06:41:57;;;;;;;5.82;3.05;;;19.90;43.90;19.10;100647.00;;;;5039827;28;20033;-70
2022/04/25 06:44:43;;;;;;;5.03;2.85;;;19.90;44.00;19.10;100644.00;;;;5041971;28;20364;-70
2022/04/25 06:47:29;;;;;;;5.70;2.80;;;20.00;44.00;19.10;100654.00;;;;5042492;28;20050;-70
2022/04/25 06:50:15;;;;;;;6.38;3.00;;;19.80;43.90;19.10;100657.00;;;;5022866;28;20052;-70
2022/04/25 06:53:01;;;;;;;4.10;2.80;;;19.80;44.00;19.10;100653.00;;;;5036731;28;20611;-70
2022/04/25 06:55:47;;;;;;;4.38;3.00;;;19.90;43.90;19.10;100657.00;;;;5033405;28;20045;-70
2022/04/25 06:58:33;;;;;;;3.90;2.70;;;19.90;44.00;19.10;100665.00;;;;5030378;28;20385;-70
2022/04/25 07:01:19;;;;;;;5.20;3.08;;;19.90;44.00;19.10;100664.00;;;;5037349;28;20056;-70
2022/04/25 07:04:09;;;;;;;4.00;2.50;;;19.90;44.10;19.10;100674.00;;;;5036635;28;20517;-70
2022/04/25 07:06:55;;;;;;;6.30;2.95;;;19.90;44.70;19.10;100660.00;;;;5026656;28;20048;-70
2022/04/25 07:09:41;;;;;;;6.20;2.75;;;19.90;44.00;19.10;100667.00;;;;5033216;28;20040;-70
2022/04/25 07:12:27;;;;;;;3.88;3.15;;;19.90;44.00;19.10;100676.00;;;;5028048;28;20033;-70
2022/04/25 07:15:13;;;;;;;4.82;3.10;;;19.90;44.00;19.10;100680.00;;;;5035420;28;20038;-70
2022/04/25 07:18:00;;;;;;;5.93;3.53;;;19.90;43.90;19.10;100677.00;;;;5031218;28;20041;-70
2022/04/25 07:20:46;;;;;;;4.90;2.90;;;19.90;43.90;19.10;100669.00;;;;5030784;28;20037;-70
2022/04/25 07:29:46;;;;;;;4.50;2.88;;;19.90;43.90;19.00;100684.00;;;;5024744;28;20038;-70
2022/04/25 07:32:39;;;;;;;3.88;2.70;;;19.90;43.90;19.10;100694.00;;;;5036258;28;20040;-70
2022/04/25 07:35:27;;;;;;;4.90;2.92;;;19.90;43.90;19.00;100697.00;;;;5022084;28;20045;-71
2022/04/25 07:38:13;;;;;;;;;;;19.90;44.00;19.00;100694.00;;;;5035453;28;20032;-71
2022/04/25 07:41:00;;;;;;;4.80;2.55;;;19.90;43.80;19.00;100697.00;;;;5033803;28;20437;-70
2022/04/25 07:43:46;;;;;;;6.60;3.05;;;19.80;43.70;19.00;100706.00;;;;5038087;28;20044;-70
2022/04/25 07:46:32;;;;;;;5.28;3.20;;;19.90;43.80;19.00;100707.00;;;;5020366;28;20040;-71
2022/04/25 07:49:18;;;;;;;5.20;3.00;;;19.90;43.90;19.00;100705.00;;;;5033436;28;20045;-71
2022/04/25 07:52:05;;;;;;;5.10;2.97;;;19.90;43.90;19.00;100707.00;;;;5039388;28;20670;-70
2022/04/25 07:54:55;;;;;;;5.43;3.38;;;19.90;43.80;19.00;100714.00;;;;5035829;28;20595;-70
2022/04/25 07:57:42;;;;;;;5.13;3.05;;;19.90;43.90;19.00;100718.00;;;;5038898;28;20056;-70
2022/04/25 08:00:28;;;;;;;4.93;2.75;;;19.90;43.90;19.00;100714.00;;;;5032416;28;20084;-70
2022/04/25 08:03:14;;;;;;;5.43;3.35;;;19.80;43.80;19.00;100722.00;;;;5043019;28;20113;-70
2022/04/25 08:06:01;;;;;;;4.53;3.15;;;19.80;43.80;19.00;100715.00;;;;5035712;28;20163;-70
2022/04/25 08:08:53;;;;;;;4.72;3.00;;;19.90;43.90;19.00;100719.00;;;;5034758;28;20064;-70
2022/04/25 08:11:39;;;;;;;4.95;3.05;;;19.80;43.90;19.00;100720.00;;;;5011190;28;20053;-70
2022/04/25 08:20:36;;;;;;;7.28;3.70;;;19.80;43.90;19.00;100723.00;;;;5040916;28;20049;-70
2022/04/25 08:23:22;;;;;;;5.88;3.28;;;19.80;43.80;19.00;100722.00;;;;5020707;28;20048;-70
2022/04/25 08:26:08;;;;;;;4.80;3.50;;;19.80;43.80;19.00;100722.00;;;;5046630;28;20053;-70
2022/04/25 08:28:54;;;;;;;4.75;2.97;;;19.90;43.90;19.00;100729.00;;;;5032670;28;20045;-70
2022/04/25 08:31:40;;;;;;;6.18;3.47;;;19.80;43.80;19.00;100734.00;;;;5031516;28;20159;-70
2022/04/25 08:34:26;;;;;;;5.20;3.17;;;19.80;43.80;19.00;100724.00;;;;5038412;28;20763;-70
2022/04/25 08:37:12;;;;;;;4.15;3.05;;;19.80;43.80;19.00;100733.00;;;;5037410;28;20045;-70
2022/04/25 08:39:58;;;;;;;5.45;3.53;;;19.80;43.80;19.00;100727.00;;;;5036601;28;20913;-71
2022/04/25 08:42:44;;;;;;;6.20;3.17;;;19.80;43.80;19.00;100738.00;;;;5042011;28;20049;-70
2022/04/25 08:45:31;;;;;;;6.65;3.85;;;19.90;43.90;19.00;100738.00;;;;5037711;28;20045;-70
2022/04/25 08:48:17;;;;;;;6.30;3.60;;;19.80;43.80;19.00;100735.00;;;;5027936;28;20582;-70
2022/04/25 08:51:07;;;;;;;5.57;3.50;;;19.90;43.90;19.00;100746.00;;;;5027497;28;20053;-70
2022/04/25 08:53:53;;;;;;;5.65;3.40;;;19.80;43.90;19.00;100755.00;;;;5023226;28;20096;-70
2022/04/25 08:56:40;;;;;;;5.43;3.50;;;19.80;43.80;19.00;100761.00;;;;5027259;28;20052;-70
2022/04/25 08:59:26;;;;;;;5.05;3.65;;;19.80;43.80;19.00;100754.00;;;;5024530;28;20048;-70
2022/04/25 09:02:12;;;;;;;4.72;3.30;;;19.90;43.90;19.00;100763.00;;;;5019023;28;20047;-70
2022/04/25 09:04:58;;;;;;;5.05;3.50;;;19.80;43.80;19.00;100760.00;;;;5033792;28;20518;-70
2022/04/25 09:07:44;;;;;;;5.07;3.28;;;19.80;43.80;19.00;100771.00;;;;5043523;28;20535;-70
2022/04/25 09:10:31;;;;;;;6.22;3.50;;;19.80;43.80;19.00;100780.00;;;;5019735;28;20539;-70
2022/04/25 09:13:17;;;;;;;4.63;3.92;;;19.80;43.80;19.00;100788.00;;;;5010544;28;20116;-70
2022/04/25 09:16:05;;;;;;;4.60;3.33;;;19.80;43.80;19.00;100779.00;;;;5026357;28;20077;-70
2022/04/25 09:18:51;;;;;;;6.82;3.47;;;19.80;44.60;19.00;100782.00;;;;5023097;28;20048;-70
2022/04/25 09:21:43;;;;;;;5.53;3.40;;;19.90;43.80;19.00;100774.00;;;;5021377;28;20056;-70
2022/04/25 09:24:31;;;;;;;4.53;3.22;;;19.80;43.90;19.00;100786.00;;;;5027530;28;20048;-70
2022/04/25 09:27:23;;;;;;;5.03;3.20;;;19.80;43.80;19.00;100789.00;;;;5038035;28;20082;-70
2022/04/25 09:30:20;;;;;;;7.10;3.60;;;19.90;43.90;19.00;100796.00;;;;5043386;28;20040;-70
2022/04/25 09:33:22;;;;;;;4.90;3.35;;;19.90;44.00;19.00;100796.00;;;;5034086;28;20037;-71
2022/04/25 09:36:08;;;;;;;5.80;3.60;;;19.80;43.80;19.00;100805.00;;;;5033825;28;20045;-70
2022/04/25 09:38:54;;;;;;;6.82;4.03;;;19.80;43.80;19.00;100799.00;;;;5035222;28;20048;-70
2022/04/25 09:41:40;;;;;;;3.83;3.00;;;19.90;43.80;19.00;100797.00;;;;5019813;28;20148;-70
2022/04/25 09:44:59;;;;;;;7.07;3.92;;;19.80;43.80;19.00;100804.00;;;;5002725;28;20055;-70
2022/04/25 09:47:46;;;;;;;5.75;3.70;;;19.80;43.80;19.00;100806.00;;;;5030629;28;20045;-71
2022/04/25 09:50:32;;;;;;;4.95;3.35;;;19.90;43.80;19.00;100808.00;;;;5024145;28;20119;-71
2022/04/25 09:53:18;;;;;;;5.70;3.38;;;19.80;43.80;19.00;100809.00;;;;5041017;28;20045;-70
2022/04/25 09:56:24;;;;;;;6.38;3.38;;;19.80;44.50;19.00;100814.00;;;;5035243;28;20109;-70
2022/04/25 09:59:10;;;;;;;9.10;3.65;;;19.80;43.80;19.00;100815.00;;;;5018739;28;20051;-70
2022/04/25 10:02:04;;;;;;;6.47;3.55;;;19.80;43.80;19.00;100816.00;;;;5043732;28;20765;-70
2022/04/25 10:04:50;;;;;;;5.82;3.58;;;19.80;43.80;19.00;100822.00;;;;5032495;28;20434;-70
2022/04/25 10:07:36;;;;;;;5.13;3.22;;;19.80;43.80;19.00;100824.00;;;;5024666;28;20053;-70
2022/04/25 10:10:23;;;;;;;5.47;3.45;;;19.90;43.90;19.00;100823.00;;;;5005562;28;20038;-70
2022/04/25 10:13:09;;;;;;;5.00;3.42;;;19.80;43.80;19.00;100828.00;;;;5008591;28;20648;-70
2022/04/25 10:15:56;;;;;;;5.57;3.40;;;19.80;43.80;19.00;100828.00;;;;5011540;28;20076;-70
2022/04/25 10:18:42;;;;;;;5.57;3.33;;;19.80;43.80;19.00;100843.00;;;;5013242;28;20045;-71
2022/04/25 10:21:31;;;;;;;3.88;2.83;;;19.80;43.80;19.00;100846.00;;;;5018094;28;20045;-71
2022/04/25 10:24:20;;;;;;;6.78;3.45;;;19.80;43.80;19.00;100849.00;;;;5007156;28;20046;-70
2022/04/25 10:27:09;;;;;;;4.63;3.50;;;19.80;43.80;19.00;100853.00;;;;5028369;28;20148;-71
2022/04/25 10:29:57;;;;;;;4.72;3.20;;;19.80;43.80;19.00;100854.00;;;;5005949;28;20148;-70
2022/04/25 10:32:45;;;;;;;5.45;3.60;;;19.80;43.80;19.00;100861.00;;;;5010655;28;20052;-70
2022/04/25 10:35:32;;;;;;;5.65;3.45;;;19.90;43.80;19.00;100851.00;;;;5027754;28;20041;-70
2022/04/25 10:44:37;;;;;;;6.18;3.88;;;19.80;43.80;19.00;100858.00;;;;5022905;28;20060;-70
2022/04/25 10:47:28;;;;;;;5.50;3.58;;;19.90;43.90;19.00;100858.00;;;;5032021;28;20454;-70
2022/04/25 10:50:14;;;;;;;4.75;2.97;;;19.90;43.80;19.00;100860.00;;;;5008925;28;20049;-70
2022/04/25 10:53:01;;;;;;;4.10;3.35;;;19.80;43.80;19.00;100839.00;;;;4997835;28;20041;-70
2022/04/25 10:55:47;;;;;;;4.55;3.10;;;19.80;43.80;19.00;100856.00;;;;4994184;28;20652;-70
2022/04/25 10:58:34;;;;;;;5.43;3.17;;;19.80;43.80;19.00;100853.00;;;;5019890;28;20048;-71
2022/04/25 11:01:30;;;;;;;5.70;2.72;;;19.80;43.80;19.00;100858.00;;;;5001073;28;20069;-70
2022/04/25 11:04:17;;;;;;;4.22;3.28;;;19.80;44.50;19.00;100860.00;;;;5012637;28;20095;-70
2022/04/25 11:07:22;;;;;;;4.60;3.20;;;19.80;43.80;19.00;100858.00;;;;5033234;28;20052;-70
2022/04/25 11:10:09;;;;;;;5.35;3.10;;;19.80;43.80;19.00;100861.00;;;;5019480;28;20044;-70
2022/04/25 11:12:58;;;;;;;5.10;3.40;;;19.90;43.90;19.00;100867.00;;;;5021491;28;20383;-70
2022/04/25 11:15:49;;;;;;;4.97;3.45;;;19.90;43.90;19.00;100874.00;;;;5023678;28;20414;-70
2022/04/25 11:18:37;;;;;;;7.22;3.22;;;19.90;44.00;19.00;100865.00;;;;5012906;28;20040;-70
2022/04/25 11:21:32;;;;;;;6.72;3.88;;;19.90;44.00;19.00;100878.00;;;;5018381;28;20044;-70
2022/04/25 11:24:28;;;;;;;4.28;3.05;;;19.90;44.70;19.00;100872.00;;;;5033203;28;20128;-70
2022/04/25 11:27:14;;;;;;;4.53;3.15;;;19.80;43.90;19.00;100876.00;;;;5020649;28;20146;-70
2022/04/25 11:30:14;;;;;;;5.60;3.30;;;19.90;43.90;19.00;100878.00;;;;5022307;28;20033;-70
2022/04/25 11:33:08;;;;;;;3.50;2.75;;;19.80;44.00;19.00;100878.00;;;;5022119;28;20544;-70
2022/04/25 11:35:59;;;;;;;5.07;3.38;;;19.80;43.90;19.00;100878.00;;;;5004046;28;20477;-70
2022/04/25 11:41:57;;;;;;;4.15;3.03;;;19.80;44.00;19.00;100896.00;;;;5032494;28;20048;-70
2022/04/25 11:44:44;;;;;;;5.30;3.10;;;19.80;43.90;19.00;100892.00;;;;5001429;28;20525;-70
2022/04/25 11:47:31;;;;;;;6.70;3.10;;;19.90;44.00;19.00;100896.00;;;;5024680;28;20045;-70
2022/04/25 11:50:19;;;;;;;5.78;3.30;;;19.80;44.00;19.00;100898.00;;;;5031772;28;20037;-71
2022/04/25 11:53:06;;;;;;;6.10;3.47;;;19.90;44.00;19.00;100902.00;;;;5035103;28;20067;-70
2022/04/25 11:55:52;;;;;;;5.35;3.22;;;19.80;44.00;19.00;100900.00;;;;5034290;28;20040;-70
2022/04/25 11:58:38;;;;;;;4.85;3.22;;;19.80;44.00;19.00;100905.00;;;;5036132;28;20582;-70
2022/04/25 12:01:42;;;;;;;3.75;2.78;;;19.90;44.00;19.00;100903.00;;;;5030697;28;20049;-70
2022/04/25 12:04:35;;;;;;;4.28;3.13;;;19.80;44.00;19.00;100903.00;;;;5041659;28;20121;-70
2022/04/25 12:07:21;;;;;;;3.80;3.10;;;19.80;44.00;19.00;100906.00;;;;5031408;28;20105;-70
2022/04/25 12:16:18;;;;;;;5.80;3.15;;;19.80;44.00;19.00;100913.00;;;;5017302;28;20131;-70
2022/04/25 12:19:06;;;;;;;3.58;3.17;;;19.90;44.10;19.00;100912.00;;;;5043545;28;20049;-71
2022/04/25 12:22:01;;;;;;;5.70;3.33;;;19.80;44.10;19.00;100908.00;;;;5035957;28;20145;-70
2022/04/25 12:24:47;;;;;;;4.78;3.25;;;19.80;44.10;19.00;100906.00;;;;5043088;28;20081;-71
2022/04/25 12:27:33;;;;;;;3.42;2.63;;;19.90;44.20;19.00;100906.00;;;;5039972;28;20045;-70
2022/04/25 12:30:19;;;;;;;4.88;3.08;;;19.80;44.10;19.00;100908.00;;;;5015429;28;20106;-70
2022/04/25 12:33:08;;;;;;;5.35;3.22;;;19.80;44.10;19.00;100905.00;;;;5018861;28;20165;-70
2022/04/25 12:36:16;;;;;;;4.70;3.45;;;19.80;44.10;19.00;100912.00;;;;5012177;28;20120;-70
2022/04/25 12:39:13;;;;;;;4.82;3.20;;;19.90;44.20;19.00;100912.00;;;;5036032;28;20052;-70
2022/04/25 12:42:01;;;;;;;6.13;3.35;;;19.90;44.20;19.00;100910.00;;;;5037308;28;20040;-70
2022/04/25 12:44:57;;;;;;;3.85;2.95;;;19.90;44.20;19.00;100908.00;;;;5026683;28;20397;-70
2022/04/25 12:47:44;;;;;;;3.45;3.00;;;19.90;44.30;19.00;100910.00;;;;5034084;28;20045;-70
2022/04/25 12:50:43;;;;;;;5.07;3.28;;;19.90;44.20;19.00;100904.00;;;;5019778;28;20037;-70
2022/04/25 12:53:39;;;;;;;3.53;2.70;;;19.80;44.20;19.00;100916.00;;;;5026028;28;20037;-70